Time;durP1;ratioP1;P1;durP2;ratioP2;P2;SDS_P1;SDS_P2;PMS_P1;PMS_P2;Temp;Humidity;BMP_temperature;BMP_pressure;BME280_temperature;BME280_humidity;BME280_pressure;Samples;Min_cycle;Max_cycle;Signal;HPM_P1;HPM_P2
2022/09/28 00:01:26;;;;;;;3.35;0.85;;;;;;;9.05;100.00;95269.31;5050916;28;20423;-69
2022/09/28 00:03:56;;;;;;;4.07;0.80;;;;;;;9.03;100.00;95261.50;5050887;28;20393;-69
2022/09/28 00:06:23;;;;;;;1.58;0.95;;;;;;;9.12;100.00;95252.91;5007840;28;20017;-69
2022/09/28 00:08:49;;;;;;;2.92;1.20;;;;;;;9.07;100.00;95250.56;5037406;28;20044;-67
2022/09/28 00:11:16;;;;;;;4.18;1.10;;;;;;;9.08;100.00;95250.19;5074345;28;20898;-66
2022/09/28 00:13:42;;;;;;;5.00;1.15;;;;;;;9.03;100.00;95231.47;5059840;28;20040;-64
2022/09/28 00:16:12;;;;;;;4.65;1.13;;;;;;;9.03;100.00;95228.72;5029480;28;20029;-67
2022/09/28 00:18:37;;;;;;;5.68;1.30;;;;;;;9.08;100.00;95227.56;5049396;28;20029;-66
2022/09/28 00:21:13;;;;;;;2.53;0.88;;;;;;;9.16;100.00;95216.25;5050556;28;20070;-70
2022/09/28 00:26:24;;;;;;;2.25;0.80;;;;;;;9.09;100.00;95210.78;5048324;28;20079;-67
2022/09/28 00:28:51;;;;;;;5.82;1.13;;;;;;;8.99;100.00;95203.38;5032593;28;20029;-68
2022/09/28 00:31:17;;;;;;;3.72;1.15;;;;;;;9.10;100.00;95200.66;5032321;28;20108;-68
2022/09/28 00:33:43;;;;;;;3.00;1.02;;;;;;;8.98;100.00;95194.44;5068975;23;20082;-65
2022/09/28 00:36:08;;;;;;;4.15;1.00;;;;;;;8.97;100.00;95203.78;5069273;28;20697;-66
2022/09/28 00:38:33;;;;;;;4.60;1.13;;;;;;;8.99;100.00;95189.75;5075378;28;20051;-64
2022/09/28 00:40:59;;;;;;;2.75;1.02;;;;;;;9.03;100.00;95195.97;5070288;28;20024;-65
2022/09/28 00:43:25;;;;;;;3.53;1.10;;;;;;;8.96;100.00;95185.06;5069876;28;20078;-64
2022/09/28 00:46:20;;;;;;;3.60;1.40;;;;;;;9.07;100.00;95174.88;5066130;28;20040;-65
2022/09/28 00:48:57;;;;;;;3.65;1.00;;;;;;;9.07;100.00;95177.59;5063573;28;20048;-66
2022/09/28 00:51:25;;;;;;;2.80;1.00;;;;;;;9.02;100.00;95172.56;5067239;28;20028;-66
2022/09/28 00:53:53;;;;;;;4.18;1.00;;;;;;;8.91;100.00;95166.34;5067307;28;20024;-70
2022/09/28 00:56:23;;;;;;;2.58;0.93;;;;;;;8.78;100.00;95158.56;5069033;28;20107;-67
2022/09/28 00:58:51;;;;;;;2.95;1.02;;;;;;;8.70;100.00;95165.22;5051505;28;20016;-67
2022/09/28 01:01:17;;;;;;;2.72;1.00;;;;;;;8.76;100.00;95160.13;5069989;28;20024;-67
2022/09/28 01:03:47;;;;;;;4.00;1.00;;;;;;;8.72;100.00;95154.66;5078869;28;20032;-67
2022/09/28 01:06:26;;;;;;;5.10;0.90;;;;;;;8.85;100.00;95148.81;5073832;28;20486;-66
2022/09/28 01:08:57;;;;;;;5.57;1.38;;;;;;;8.88;100.00;95143.34;5072179;28;20127;-65
2022/09/28 01:11:23;;;;;;;4.03;0.98;;;;;;;8.88;100.00;95134.38;5072249;28;20434;-68
2022/09/28 01:13:52;;;;;;;3.28;0.90;;;;;;;8.96;100.00;95133.16;5073320;28;20028;-67
2022/09/28 01:16:26;;;;;;;2.67;1.00;;;;;;;8.92;100.00;95125.00;5071342;28;20040;-66
2022/09/28 01:19:20;;;;;;;2.75;0.80;;;;;;;9.08;100.00;95113.63;5073080;28;20082;-67
2022/09/28 01:21:52;;;;;;;2.75;0.90;;;;;;;9.15;100.00;95108.16;5071385;28;20047;-67
2022/09/28 01:24:46;;;;;;;2.17;0.98;;;;;;;9.22;100.00;95109.28;5064421;28;20032;-64
2022/09/28 01:27:51;;;;;;;2.88;0.90;;;;;;;9.23;100.00;95106.16;5071378;28;20024;-66
2022/09/28 01:30:19;;;;;;;5.20;0.90;;;;;;;9.15;100.00;95102.69;5073208;28;20047;-65
2022/09/28 01:33:05;;;;;;;4.05;1.15;;;;;;;9.12;100.00;95083.56;5081377;28;20045;-65
2022/09/28 01:35:38;;;;;;;4.15;1.02;;;;;;;9.06;100.00;95080.47;5070831;28;20546;-66
2022/09/28 01:38:04;;;;;;;5.05;0.80;;;;;;;9.00;100.00;95073.84;5073067;28;20420;-66
2022/09/28 01:40:31;;;;;;;2.25;0.80;;;;;;;9.09;100.00;95071.50;5073189;28;20027;-68
2022/09/28 01:43:02;;;;;;;2.38;1.10;;;;;;;9.20;100.00;95074.19;5073018;28;20421;-66
2022/09/28 01:45:35;;;;;;;1.77;0.88;;;;;;;9.07;100.00;95062.91;5071474;28;20386;-65
2022/09/28 01:48:04;;;;;;;2.85;0.90;;;;;;;8.93;100.00;95062.97;5072762;28;20078;-66
2022/09/28 01:50:35;;;;;;;6.80;1.30;;;;;;;8.89;100.00;95056.75;5072748;28;20074;-66
2022/09/28 01:53:23;;;;;;;1.75;0.95;;;;;;;8.88;100.00;95053.25;5072662;28;20085;-64
2022/09/28 01:55:54;;;;;;;5.65;0.75;;;;;;;9.04;100.00;95046.53;5071542;28;20033;-66
2022/09/28 01:58:42;;;;;;;3.83;1.00;;;;;;;9.06;100.00;95039.50;5056395;28;20032;-66
2022/09/28 02:01:20;;;;;;;2.50;0.90;;;;;;;9.02;100.00;95033.31;5074607;28;20024;-66
2022/09/28 02:04:06;;;;;;;6.82;0.90;;;;;;;9.01;100.00;95020.81;5073352;28;20071;-66
2022/09/28 02:06:39;;;;;;;2.97;0.80;;;;;;;9.03;100.00;95031.34;5070383;28;20154;-66
2022/09/28 02:09:10;;;;;;;2.15;0.80;;;;;;;9.01;100.00;95018.06;5072636;28;20081;-66
2022/09/28 02:11:40;;;;;;;2.92;0.90;;;;;;;9.01;100.00;95023.53;5069088;28;20024;-66
2022/09/28 02:14:11;;;;;;;2.35;1.00;;;;;;;8.86;100.00;95011.91;5071753;28;20032;-66
2022/09/28 02:16:41;;;;;;;4.65;1.17;;;;;;;8.83;100.00;95009.19;5071026;28;20067;-67
2022/09/28 02:19:13;;;;;;;2.85;1.00;;;;;;;8.82;100.00;95010.34;5071638;28;20033;-67
2022/09/28 02:22:06;;;;;;;4.78;1.58;;;;;;;8.76;100.00;95013.50;5070619;28;20127;-67
2022/09/28 02:24:39;;;;;;;1.65;0.80;;;;;;;8.80;100.00;95016.22;5076495;28;20428;-66
2022/09/28 02:27:43;;;;;;;3.75;1.15;;;;;;;8.77;100.00;95006.09;5071677;28;20028;-68
2022/09/28 02:30:09;;;;;;;2.90;1.55;;;;;;;8.78;100.00;95008.41;5029799;28;20035;-65
2022/09/28 02:32:39;;;;;;;3.42;1.00;;;;;;;8.89;100.00;95002.13;5062697;28;20052;-66
2022/09/28 02:35:13;;;;;;;3.58;0.90;;;;;;;8.81;100.00;94998.66;5071892;28;20108;-67
2022/09/28 02:37:39;;;;;;;3.17;0.98;;;;;;;8.76;100.00;94988.94;5062389;28;20051;-66
2022/09/28 02:40:22;;;;;;;5.55;1.10;;;;;;;8.75;100.00;94990.13;5071622;28;20464;-66
2022/09/28 02:43:14;;;;;;;2.53;1.00;;;;;;;8.74;100.00;94988.53;5069924;28;20024;-67
2022/09/28 02:45:58;;;;;;;2.30;1.00;;;;;;;8.78;100.00;94986.56;5054778;28;20044;-67
2022/09/28 02:48:35;;;;;;;4.35;1.08;;;;;;;8.72;100.00;94971.78;5070201;28;20044;-67
2022/09/28 02:51:12;;;;;;;3.05;1.10;;;;;;;9.05;100.00;94968.91;5068580;28;20032;-66
2022/09/28 02:53:59;;;;;;;3.97;1.05;;;;;;;8.92;100.00;94980.28;5069158;28;20084;-67
2022/09/28 02:56:49;;;;;;;5.43;1.30;;;;;;;8.85;100.00;94987.72;5068649;28;20037;-67
2022/09/28 02:59:43;;;;;;;4.82;1.00;;;;;;;8.93;100.00;94979.13;5068705;28;20070;-67
2022/09/28 03:02:33;;;;;;;2.10;0.93;;;;;;;8.82;100.00;94985.78;5070822;28;21336;-67
2022/09/28 03:05:13;;;;;;;;;;;;;;;8.79;100.00;94977.22;5069825;28;20024;-67
2022/09/28 03:07:43;;;;;;;;;;;;;;;8.73;100.00;94973.38;5084455;28;19916;-66
2022/09/28 03:10:38;;;;;;;2.85;1.10;;;;;;;8.66;100.00;94959.75;5071146;28;19919;-65
2022/09/28 03:13:04;;;;;;;7.85;2.10;;;;;;;8.71;100.00;94953.84;5068302;28;20063;-66
2022/09/28 03:15:32;;;;;;;4.07;1.67;;;;;;;8.83;100.00;94933.53;5070241;28;20032;-66
2022/09/28 03:17:58;;;;;;;5.18;1.60;;;;;;;8.78;100.00;94939.41;5071206;28;20036;-64
2022/09/28 03:20:24;;;;;;;4.43;1.25;;;;;;;8.77;100.00;94929.66;5071060;28;20028;-65
2022/09/28 03:22:50;;;;;;;3.15;1.65;;;;;;;8.80;100.00;94924.19;5070040;28;20035;-66
2022/09/28 03:25:15;;;;;;;2.70;0.95;;;;;;;8.85;100.00;94933.91;5067462;28;20044;-68
2022/09/28 03:27:41;;;;;;;2.28;0.80;;;;;;;8.70;100.00;94927.75;5070021;28;20032;-68
2022/09/28 03:30:07;;;;;;;3.45;1.10;;;;;;;8.65;100.00;94930.13;5070820;28;20183;-66
2022/09/28 03:32:33;;;;;;;8.32;1.10;;;;;;;8.63;100.00;94932.47;5070280;28;20056;-67
2022/09/28 03:34:58;;;;;;;3.72;0.90;;;;;;;8.57;100.00;94943.78;5069846;28;20108;-67
2022/09/28 03:37:25;;;;;;;2.67;0.93;;;;;;;8.55;100.00;94931.69;5070072;28;20025;-67
2022/09/28 03:39:50;;;;;;;6.32;1.50;;;;;;;8.45;100.00;94938.78;5071652;28;20020;-66
2022/09/28 03:42:16;;;;;;;8.30;1.48;;;;;;;8.48;100.00;94940.72;5081469;28;20048;-66
2022/09/28 03:44:41;;;;;;;2.33;1.20;;;;;;;8.56;100.00;94947.69;5073077;28;20044;-67
2022/09/28 03:47:07;;;;;;;4.68;1.00;;;;;;;8.54;100.00;94936.38;5070794;28;20050;-66
2022/09/28 03:49:33;;;;;;;4.55;0.82;;;;;;;8.56;100.00;94916.91;5070584;28;20037;-66
2022/09/28 03:51:58;;;;;;;3.53;1.10;;;;;;;8.46;100.00;94923.16;5069511;28;20032;-68
2022/09/28 03:54:24;;;;;;;3.15;1.33;;;;;;;8.49;100.00;94920.44;5069265;28;20067;-68
2022/09/28 03:56:50;;;;;;;4.25;1.30;;;;;;;8.50;100.00;94921.19;5070034;28;20037;-67
2022/09/28 03:59:16;;;;;;;3.42;1.20;;;;;;;8.49;100.00;94906.78;5067942;28;20400;-67
2022/09/28 04:01:42;;;;;;;8.15;1.52;;;;;;;8.43;100.00;94922.03;5068797;28;20033;-67
2022/09/28 04:04:10;;;;;;;2.25;1.10;;;;;;;8.45;100.00;94899.81;5071645;28;20024;-66
2022/09/28 04:06:36;;;;;;;3.80;1.30;;;;;;;8.40;100.00;94890.81;5067245;28;20035;-67
2022/09/28 04:09:01;;;;;;;2.83;1.27;;;;;;;8.50;100.00;94886.53;5066848;28;20032;-67
2022/09/28 04:11:27;;;;;;;3.15;0.90;;;;;;;8.60;100.00;94879.44;5062042;28;20029;-67
2022/09/28 04:13:52;;;;;;;2.67;1.10;;;;;;;8.74;100.00;94867.69;5078404;28;20569;-67
2022/09/28 04:16:18;;;;;;;2.90;1.10;;;;;;;8.82;100.00;94858.25;5072474;28;20107;-67
2022/09/28 04:18:43;;;;;;;2.08;1.00;;;;;;;8.86;100.00;94852.78;5078698;28;20051;-67
2022/09/28 04:21:11;;;;;;;2.58;0.93;;;;;;;8.74;100.00;94864.94;5071980;28;20112;-66
2022/09/28 04:23:38;;;;;;;3.75;1.13;;;;;;;8.59;100.00;94873.22;5072695;28;20032;-67
2022/09/28 04:26:06;;;;;;;5.93;1.35;;;;;;;8.52;100.00;94872.50;5073372;28;20423;-66
2022/09/28 04:31:18;;;;;;;3.72;1.60;;;;;;;8.36;100.00;94878.38;5069015;28;20042;-67
2022/09/28 04:33:44;;;;;;;4.20;1.67;;;;;;;8.35;100.00;94888.50;5058806;28;20035;-67
2022/09/28 04:36:09;;;;;;;2.30;1.40;;;;;;;8.41;100.00;94884.19;5070579;28;20689;-66
2022/09/28 04:38:36;;;;;;;4.10;1.70;;;;;;;8.44;100.00;94879.13;5066709;28;20029;-68
2022/09/28 04:41:01;;;;;;;3.38;1.63;;;;;;;8.49;100.00;94876.78;5069819;28;20028;-68
2022/09/28 04:43:27;;;;;;;4.53;1.50;;;;;;;8.55;100.00;94874.41;5079295;28;20029;-67
2022/09/28 04:46:00;;;;;;;6.18;1.15;;;;;;;8.49;100.00;94874.03;5073248;28;20036;-64
2022/09/28 04:48:27;;;;;;;2.88;1.20;;;;;;;8.61;100.00;94872.81;5073215;28;20681;-65
2022/09/28 04:50:56;;;;;;;3.60;0.93;;;;;;;8.68;100.00;94863.81;5068335;28;20031;-66
2022/09/28 04:53:22;;;;;;;3.03;1.02;;;;;;;8.73;100.00;94857.94;5073838;28;20111;-67
2022/09/28 04:55:59;;;;;;;3.50;1.08;;;;;;;8.69;100.00;94873.56;5072301;28;20408;-65
2022/09/28 04:58:26;;;;;;;5.45;1.58;;;;;;;8.63;100.00;94861.50;5071780;28;20029;-68
2022/09/28 05:00:53;;;;;;;5.47;1.40;;;;;;;8.55;100.00;94858.81;5071817;28;20048;-65
2022/09/28 05:03:19;;;;;;;4.20;1.50;;;;;;;8.71;100.00;94863.78;5072737;28;20544;-65
2022/09/28 05:05:46;;;;;;;4.68;1.52;;;;;;;8.69;100.00;94860.69;5073164;28;20032;-67
2022/09/28 05:08:12;;;;;;;5.00;2.65;;;;;;;8.54;100.00;94865.44;5073544;28;20024;-67
2022/09/28 05:10:40;;;;;;;4.35;1.35;;;;;;;8.56;100.00;94848.69;5071223;28;20047;-66
2022/09/28 05:13:10;;;;;;;1.80;1.10;;;;;;;8.56;100.00;94862.31;5073325;28;20094;-64
2022/09/28 05:15:37;;;;;;;1.13;0.90;;;;;;;8.59;100.00;94865.03;5068982;28;20111;-67
2022/09/28 05:18:03;;;;;;;2.78;1.10;;;;;;;8.60;100.00;94868.53;5073570;28;20469;-66
2022/09/28 05:20:29;;;;;;;5.85;2.25;;;;;;;8.52;100.00;94873.25;5071767;28;20039;-67
2022/09/28 05:22:54;;;;;;;5.35;0.77;;;;;;;8.55;100.00;94871.66;5073342;28;20028;-68
2022/09/28 05:25:19;;;;;;;2.75;1.02;;;;;;;8.46;100.00;94866.66;5063041;28;20021;-68
2022/09/28 05:27:45;;;;;;;2.53;1.35;;;;;;;8.55;100.00;94861.56;5072038;28;20079;-68
2022/09/28 05:30:11;;;;;;;3.45;1.33;;;;;;;8.53;100.00;94866.59;5073158;28;20024;-67
2022/09/28 05:32:40;;;;;;;1.27;0.77;;;;;;;8.59;100.00;94862.31;5073232;28;20078;-65
2022/09/28 05:35:06;;;;;;;4.80;1.02;;;;;;;8.60;100.00;94861.13;5073431;28;20028;-66
2022/09/28 05:37:32;;;;;;;1.92;1.17;;;;;;;8.55;100.00;94858.81;5071396;28;20032;-66
2022/09/28 05:39:57;;;;;;;3.90;1.10;;;;;;;8.59;100.00;94851.38;5072708;28;20099;-68
2022/09/28 05:42:23;;;;;;;2.60;1.20;;;;;;;8.60;100.00;94854.88;5074058;28;20037;-66
2022/09/28 05:44:48;;;;;;;2.20;1.13;;;;;;;8.58;100.00;94858.00;5071212;28;20562;-66
2022/09/28 05:47:13;;;;;;;5.55;1.10;;;;;;;8.53;100.00;94852.19;5071232;28;20029;-67
2022/09/28 05:49:39;;;;;;;3.42;1.42;;;;;;;8.55;100.00;94853.38;5056007;28;20024;-67
2022/09/28 05:52:05;;;;;;;3.00;1.08;;;;;;;8.56;100.00;94854.13;5086502;28;20012;-66
2022/09/28 05:54:30;;;;;;;2.17;1.20;;;;;;;8.61;100.00;94861.91;5070727;28;20736;-67
2022/09/28 05:56:55;;;;;;;1.95;1.10;;;;;;;8.61;100.00;94859.94;5072331;28;20028;-70
2022/09/28 05:59:21;;;;;;;2.42;1.27;;;;;;;8.58;100.00;94857.25;5072643;28;20103;-69
2022/09/28 06:01:46;;;;;;;4.25;1.30;;;;;;;8.53;100.00;94863.13;5070515;28;20070;-67
2022/09/28 06:04:13;;;;;;;4.40;1.30;;;;;;;8.61;100.00;94854.50;5076088;28;20088;-68
2022/09/28 06:06:39;;;;;;;1.33;0.90;;;;;;;8.65;100.00;94854.47;5073577;28;20028;-66
2022/09/28 06:09:04;;;;;;;2.78;1.20;;;;;;;8.68;100.00;94853.69;5071539;28;20043;-67
2022/09/28 06:11:31;;;;;;;1.92;1.08;;;;;;;8.68;100.00;94850.94;5072955;28;20035;-68
2022/09/28 06:13:56;;;;;;;1.55;1.10;;;;;;;8.57;100.00;94836.56;5069639;28;20033;-68
2022/09/28 06:16:22;;;;;;;1.77;1.10;;;;;;;8.63;100.00;94850.59;5071742;28;20377;-67
2022/09/28 06:18:47;;;;;;;2.30;1.20;;;;;;;8.67;100.00;94863.03;5071710;28;20032;-66
2022/09/28 06:21:13;;;;;;;2.67;1.58;;;;;;;8.63;100.00;94851.38;5070817;28;20166;-68
2022/09/28 06:23:39;;;;;;;3.42;1.40;;;;;;;8.62;100.00;94863.44;5073385;28;20093;-68
2022/09/28 06:26:04;;;;;;;1.90;0.90;;;;;;;8.67;100.00;94868.50;5062564;28;20090;-69
2022/09/28 06:28:30;;;;;;;4.30;1.30;;;;;;;8.65;100.00;94857.19;5071265;28;20058;-67
2022/09/28 06:30:58;;;;;;;4.32;1.58;;;;;;;8.63;100.00;94859.56;5072768;28;20034;-66
2022/09/28 06:33:25;;;;;;;1.63;1.10;;;;;;;8.65;100.00;94857.19;5072454;28;20036;-67
2022/09/28 06:35:51;;;;;;;3.25;1.30;;;;;;;8.67;100.00;94854.06;5072200;28;20048;-67
2022/09/28 06:38:18;;;;;;;2.00;1.15;;;;;;;8.60;100.00;94849.44;5072969;28;20036;-67
2022/09/28 06:40:44;;;;;;;2.58;1.00;;;;;;;8.59;100.00;94851.38;5075946;28;20020;-68
2022/09/28 06:43:13;;;;;;;3.45;1.35;;;;;;;8.60;100.00;94854.88;5074709;28;20021;-69
2022/09/28 06:45:39;;;;;;;2.30;1.58;;;;;;;8.60;100.00;94863.06;5072016;28;20037;-68
2022/09/28 06:48:09;;;;;;;2.13;1.50;;;;;;;8.65;100.00;94868.13;5065732;28;20090;-67
2022/09/28 06:50:41;;;;;;;2.25;1.52;;;;;;;8.72;100.00;94870.03;5068662;28;20107;-68
2022/09/28 06:53:10;;;;;;;2.55;1.65;;;;;;;8.75;100.00;94882.88;5067484;28;20040;-68
2022/09/28 06:55:40;;;;;;;2.50;1.48;;;;;;;8.77;100.00;94891.47;5059926;28;20218;-66
2022/09/28 06:58:09;;;;;;;2.78;1.75;;;;;;;8.84;100.00;94891.41;5056205;28;20060;-67
2022/09/28 07:00:37;;;;;;;2.92;2.03;;;;;;;8.88;100.00;94888.66;5057770;28;20660;-68
2022/09/28 07:03:05;;;;;;;3.95;1.90;;;;;;;8.89;100.00;94884.75;5060287;28;20111;-66
2022/09/28 07:05:33;;;;;;;2.63;1.90;;;;;;;8.83;100.00;94884.38;5052029;28;20393;-69
2022/09/28 07:08:00;;;;;;;2.23;1.50;;;;;;;8.89;100.00;94887.47;5061041;28;20051;-68
2022/09/28 07:10:27;;;;;;;2.30;1.52;;;;;;;8.92;100.00;94887.44;5046899;28;20044;-68
2022/09/28 07:12:54;;;;;;;2.17;1.50;;;;;;;8.87;100.00;94887.09;5063502;28;20044;-68
2022/09/28 07:15:20;;;;;;;4.03;1.35;;;;;;;8.91;100.00;94894.09;5058758;28;20051;-68
2022/09/28 07:17:46;;;;;;;2.38;1.30;;;;;;;8.96;100.00;94890.91;5051713;28;20186;-68
2022/09/28 07:20:13;;;;;;;2.80;1.50;;;;;;;9.02;100.00;94901.44;5066944;28;20037;-69
2022/09/28 07:22:39;;;;;;;2.50;1.25;;;;;;;9.06;100.00;94900.25;5076959;28;20090;-65
2022/09/28 07:25:06;;;;;;;1.90;1.13;;;;;;;9.16;100.00;94904.06;5059011;28;20048;-64
2022/09/28 07:27:32;;;;;;;2.22;1.20;;;;;;;9.12;100.00;94893.16;5052096;28;20040;-67
2022/09/28 07:29:58;;;;;;;2.95;1.40;;;;;;;9.14;100.00;94899.00;5071556;28;20136;-68
2022/09/28 07:32:25;;;;;;;3.35;1.50;;;;;;;9.15;100.00;94900.56;5049293;28;21018;-69
2022/09/28 07:34:52;;;;;;;2.55;1.60;;;;;;;9.20;100.00;94899.38;5061570;28;20396;-68
2022/09/28 07:37:17;;;;;;;3.08;1.60;;;;;;;9.28;100.00;94909.06;5029817;28;20512;-68
2022/09/28 07:42:32;;;;;;;2.17;1.23;;;;;;;9.22;100.00;94926.25;5040678;28;20074;-68
2022/09/28 07:44:57;;;;;;;2.22;1.05;;;;;;;9.24;100.00;94923.91;5064022;28;20048;-66
2022/09/28 07:47:25;;;;;;;1.83;1.20;;;;;;;9.33;100.00;94930.47;5057937;28;20202;-69
2022/09/28 07:49:53;;;;;;;2.47;1.00;;;;;;;9.29;100.00;94929.75;5059872;28;20122;-67
2022/09/28 07:52:23;;;;;;;3.30;1.20;;;;;;;9.30;100.00;94935.97;5048030;28;20523;-68
2022/09/28 07:54:51;;;;;;;;;;;;;;;9.39;100.00;94933.56;5055963;28;20122;-68
2022/09/28 07:57:17;;;;;;;2.15;1.00;;;;;;;9.38;100.00;94945.66;5049183;28;19916;-66
2022/09/28 07:59:43;;;;;;;1.23;0.70;;;;;;;9.40;100.00;94940.59;5053712;28;20044;-67
2022/09/28 08:02:10;;;;;;;1.95;1.23;;;;;;;9.31;100.00;94943.78;5068172;28;20480;-65
2022/09/28 08:04:35;;;;;;;2.13;1.15;;;;;;;9.45;100.00;94931.16;5072915;28;20055;-66
2022/09/28 08:07:01;;;;;;;2.75;1.40;;;;;;;9.45;100.00;94944.84;5053486;28;20079;-66
2022/09/28 08:09:28;;;;;;;3.75;1.10;;;;;;;9.52;100.00;94944.78;5040723;28;20053;-66
2022/09/28 08:11:53;;;;;;;2.50;1.23;;;;;;;9.53;100.00;94946.34;5042897;28;20039;-66
2022/09/28 08:14:19;;;;;;;3.72;1.75;;;;;;;9.64;100.00;94944.28;5040212;28;20148;-67
2022/09/28 08:16:45;;;;;;;1.52;1.13;;;;;;;9.69;100.00;94949.34;5050739;28;20172;-67
2022/09/28 08:19:10;;;;;;;5.40;1.85;;;;;;;9.79;100.00;94949.66;5051321;28;20132;-65
2022/09/28 08:21:45;;;;;;;2.42;1.45;;;;;;;9.84;100.00;94944.50;5072649;28;20037;-67
2022/09/28 08:24:16;;;;;;;3.00;1.60;;;;;;;9.89;100.00;94943.31;5068874;28;20085;-66
2022/09/28 08:26:44;;;;;;;2.63;0.90;;;;;;;10.00;100.00;94933.03;5068220;28;20504;-68
2022/09/28 08:29:10;;;;;;;3.92;1.10;;;;;;;10.07;100.00;94932.19;5059031;28;20531;-66
2022/09/28 08:31:35;;;;;;;1.20;0.90;;;;;;;10.02;100.00;94933.41;5063309;28;20049;-67
2022/09/28 08:34:01;;;;;;;1.77;0.90;;;;;;;10.04;100.00;94939.25;5057657;28;20047;-68
2022/09/28 08:36:27;;;;;;;2.00;0.80;;;;;;;10.16;100.00;94932.50;5055281;28;20047;-65
2022/09/28 08:38:53;;;;;;;2.15;0.90;;;;;;;10.07;100.00;94943.91;5058458;28;20234;-68
2022/09/28 08:41:42;;;;;;;3.08;1.10;;;;;;;9.99;100.00;94947.13;5061619;28;20045;-66
2022/09/28 08:44:22;;;;;;;2.15;1.10;;;;;;;10.03;100.00;94948.66;5060529;28;20515;-66
2022/09/28 08:46:55;;;;;;;1.65;0.88;;;;;;;10.09;100.00;94957.94;5063770;28;20056;-67
2022/09/28 08:49:35;;;;;;;2.00;0.85;;;;;;;10.04;100.00;94963.09;5060910;28;20040;-67
2022/09/28 08:52:09;;;;;;;1.20;0.98;;;;;;;9.89;100.00;94965.19;5045947;28;20052;-68
2022/09/28 08:54:40;;;;;;;3.33;0.98;;;;;;;9.99;100.00;94971.72;5046705;28;20064;-67
2022/09/28 08:57:12;;;;;;;3.20;0.80;;;;;;;9.99;100.00;94969.00;5060216;28;20063;-66
2022/09/28 08:59:44;;;;;;;1.98;1.08;;;;;;;9.87;100.00;94982.00;5063799;28;20105;-67
2022/09/28 09:02:22;;;;;;;2.22;0.90;;;;;;;9.93;100.00;94983.09;5051339;28;20041;-68
2022/09/28 09:04:50;;;;;;;2.60;1.20;;;;;;;9.94;100.00;94990.13;5063938;28;20049;-68
2022/09/28 09:07:25;;;;;;;2.85;1.10;;;;;;;10.04;100.00;94988.47;5047594;28;20033;-68
2022/09/28 09:10:05;;;;;;;10.43;5.22;;;;;;;10.09;100.00;94993.50;5056397;28;20052;-67
2022/09/28 09:12:43;;;;;;;2.40;1.17;;;;;;;10.06;100.00;94990.81;5063891;28;20490;-68
2022/09/28 09:15:37;;;;;;;4.10;1.10;;;;;;;10.17;100.00;94994.22;5063842;28;20043;-69
2022/09/28 09:18:28;;;;;;;2.38;1.58;;;;;;;10.16;100.00;94991.91;5074561;28;20059;-66
2022/09/28 09:20:57;;;;;;;1.55;0.82;;;;;;;10.13;100.00;94999.72;5077661;28;20040;-67
2022/09/28 09:23:42;;;;;;;3.45;0.93;;;;;;;10.04;100.00;94993.19;5059365;28;20881;-69
2022/09/28 09:26:17;;;;;;;1.48;0.70;;;;;;;10.11;100.00;94993.88;5054405;28;20040;-67
2022/09/28 09:29:16;;;;;;;3.13;1.30;;;;;;;10.26;100.00;94997.28;5062777;28;20529;-67
2022/09/28 09:31:58;;;;;;;1.10;0.90;;;;;;;10.21;100.00;94999.66;5064528;28;20431;-67
2022/09/28 09:35:04;;;;;;;0.98;0.70;;;;;;;10.31;100.00;94990.59;5050735;28;20871;-67
2022/09/28 09:37:52;;;;;;;2.40;0.63;;;;;;;10.38;100.00;94993.28;5060541;28;20049;-67
2022/09/28 09:40:32;;;;;;;2.97;1.52;;;;;;;10.30;100.00;94998.00;5060364;28;20098;-66
2022/09/28 09:43:24;;;;;;;1.98;1.13;;;;;;;10.23;100.00;95000.81;5061029;28;20428;-66
2022/09/28 09:46:18;;;;;;;1.50;0.80;;;;;;;10.33;100.00;95004.66;5059317;28;20569;-66
2022/09/28 09:49:33;;;;;;;0.73;0.50;;;;;;;10.33;100.00;95001.91;5062377;28;20059;-67
2022/09/28 09:52:17;;;;;;;2.30;0.80;;;;;;;10.48;100.00;95014.28;5048899;28;20105;-67
2022/09/28 09:54:48;;;;;;;2.97;1.08;;;;;;;10.55;100.00;95007.94;5059579;28;20056;-66
2022/09/28 09:57:28;;;;;;;2.70;1.02;;;;;;;10.57;100.00;95018.47;5053330;28;20440;-66
2022/09/28 09:59:55;;;;;;;2.17;0.93;;;;;;;10.61;100.00;95020.00;5060463;28;20550;-65
2022/09/28 10:02:26;;;;;;;2.20;0.77;;;;;;;10.67;100.00;95020.34;5058798;28;20060;-65
2022/09/28 10:04:58;;;;;;;6.47;2.83;;;;;;;10.74;100.00;95028.47;5055474;28;20131;-66
2022/09/28 10:07:43;;;;;;;4.80;1.40;;;;;;;10.64;100.00;95034.84;5056998;28;20454;-66
2022/09/28 10:10:20;;;;;;;2.83;1.30;;;;;;;10.66;100.00;95030.53;5066434;28;20045;-65
2022/09/28 10:12:48;;;;;;;7.22;2.03;;;;;;;10.72;100.00;95036.31;5066960;28;20135;-66
2022/09/28 10:15:16;;;;;;;5.80;2.60;;;;;;;10.57;100.00;95038.44;5060427;28;20040;-66
2022/09/28 10:17:42;;;;;;;3.95;1.40;;;;;;;10.65;100.00;95028.97;5065486;28;20131;-66
2022/09/28 10:20:12;;;;;;;2.63;1.20;;;;;;;10.57;100.00;95026.69;5049455;28;20131;-67
2022/09/28 10:22:39;;;;;;;4.47;1.73;;;;;;;10.76;100.00;95030.81;5063939;28;20497;-67
2022/09/28 10:25:05;;;;;;;7.97;3.08;;;;;;;10.93;100.00;95032.56;5062210;28;20045;-65
2022/09/28 10:27:34;;;;;;;6.10;1.70;;;;;;;10.97;100.00;95038.78;5064034;28;20052;-66
2022/09/28 10:30:12;;;;;;;7.90;2.08;;;;;;;10.98;100.00;95034.84;5058377;28;20057;-65
2022/09/28 10:32:46;;;;;;;7.00;1.55;;;;;;;11.11;100.00;95040.56;5060915;28;20052;-66
2022/09/28 10:35:18;;;;;;;5.20;2.97;;;;;;;11.15;100.00;95046.78;5047597;28;20041;-66
2022/09/28 10:38:17;;;;;;;4.30;1.20;;;;;;;11.24;100.00;95051.75;5061872;28;20075;-67
2022/09/28 10:40:54;;;;;;;3.83;1.20;;;;;;;11.35;100.00;95051.63;5058708;28;20047;-65
2022/09/28 10:43:29;;;;;;;2.95;1.10;;;;;;;11.28;100.00;95049.75;5073635;28;20082;-65
2022/09/28 10:46:07;;;;;;;3.38;1.30;;;;;;;11.17;100.00;95052.63;5078211;28;20037;-68
2022/09/28 10:48:44;;;;;;;2.60;0.82;;;;;;;11.47;100.00;95049.09;5060976;28;20044;-65
2022/09/28 10:51:10;;;;;;;2.80;1.30;;;;;;;11.66;100.00;95050.38;5056949;28;20532;-64
2022/09/28 10:53:38;;;;;;;1.98;0.90;;;;;;;11.69;100.00;95057.03;5063281;28;20053;-66
2022/09/28 10:56:07;;;;;;;3.78;0.95;;;;;;;11.48;100.00;95055.34;5057312;28;20040;-66
2022/09/28 10:58:40;;;;;;;3.83;1.20;;;;;;;11.41;100.00;95058.19;5062388;28;20040;-67
2022/09/28 11:01:12;;;;;;;6.65;2.30;;;;;;;11.59;100.00;95057.94;5048079;28;20071;-66
2022/09/28 11:03:53;;;;;;;2.90;1.13;;;;;;;11.53;100.00;95054.91;5065583;28;20075;-67
2022/09/28 11:06:28;;;;;;;3.95;1.70;;;;;;;11.59;100.00;95058.72;5055188;28;20047;-67
2022/09/28 11:08:58;;;;;;;2.80;1.27;;;;;;;11.67;100.00;95059.41;5057436;28;20063;-67
2022/09/28 11:11:23;;;;;;;2.03;0.80;;;;;;;11.77;100.00;95058.47;5059084;28;20071;-67
2022/09/28 11:13:52;;;;;;;3.72;1.17;;;;;;;11.71;100.00;95054.66;5060453;28;20404;-67
2022/09/28 11:16:31;;;;;;;2.75;0.80;;;;;;;11.22;100.00;95049.44;5056873;28;20048;-67
2022/09/28 11:19:02;;;;;;;5.13;3.00;;;;;;;11.34;100.00;95052.81;5061666;28;20049;-67
2022/09/28 11:21:33;;;;;;;4.38;1.65;;;;;;;11.55;100.00;95057.22;5056836;28;20040;-67
2022/09/28 11:24:05;;;;;;;13.77;7.43;;;;;;;11.57;100.00;95057.59;5062469;28;20493;-67
2022/09/28 11:26:45;;;;;;;3.20;1.50;;;;;;;11.40;100.00;95062.91;5051958;28;20452;-68
2022/09/28 11:29:23;;;;;;;1.48;0.90;;;;;;;11.38;100.00;95059.00;5049927;28;20508;-67
2022/09/28 11:31:49;;;;;;;3.17;1.35;;;;;;;11.21;100.00;95058.81;5050403;28;20440;-67
2022/09/28 11:34:32;;;;;;;3.08;1.05;;;;;;;11.59;100.00;95055.22;5042816;28;20044;-67
2022/09/28 11:37:08;;;;;;;5.00;1.90;;;;;;;11.80;100.00;95065.09;5061383;28;20083;-65
2022/09/28 11:39:42;;;;;;;1.63;0.60;;;;;;;11.61;100.00;95061.06;5060185;28;20106;-66
2022/09/28 11:42:42;;;;;;;1.35;0.50;;;;;;;11.35;100.00;95063.34;5051164;28;20560;-66
2022/09/28 11:45:16;;;;;;;;;;;;;;;11.46;100.00;95061.25;5047555;28;20160;-66
2022/09/28 11:47:56;;;;;;;3.20;0.90;;;;;;;11.44;100.00;95068.34;5061816;28;19912;-66
2022/09/28 11:50:25;;;;;;;2.08;0.70;;;;;;;11.57;100.00;95054.84;5054321;28;20055;-66
2022/09/28 11:53:01;;;;;;;1.55;0.75;;;;;;;11.56;100.00;95053.28;5062368;28;20045;-66
2022/09/28 11:55:42;;;;;;;1.65;0.60;;;;;;;11.63;100.00;95044.97;5057836;28;20131;-66
2022/09/28 11:58:11;;;;;;;2.20;0.68;;;;;;;12.21;100.00;95053.13;5056249;28;20063;-66
2022/09/28 12:00:43;;;;;;;2.40;0.80;;;;;;;12.52;100.00;95059.25;5060886;28;20113;-66